sensor_id;sensor_type;location;lat;lon;timestamp;P1;durP1;ratioP1;P2;durP2;ratioP2
31978;SDS011;18502;43.574;1.276;2024-02-21T00:01:39;32.55;;;17.73;;
31978;SDS011;18502;43.574;1.276;2024-02-21T00:04:05;27.48;;;17.20;;
31978;SDS011;18502;43.574;1.276;2024-02-21T00:06:31;27.25;;;15.90;;
31978;SDS011;18502;43.574;1.276;2024-02-21T00:08:57;26.08;;;16.15;;
31978;SDS011;18502;43.574;1.276;2024-02-21T00:11:23;26.33;;;16.02;;
31978;SDS011;18502;43.574;1.276;2024-02-21T00:13:49;29.58;;;15.65;;
31978;SDS011;18502;43.574;1.276;2024-02-21T00:16:15;31.08;;;17.60;;
31978;SDS011;18502;43.574;1.276;2024-02-21T00:18:41;30.00;;;15.93;;
31978;SDS011;18502;43.574;1.276;2024-02-21T00:21:08;28.95;;;19.15;;
31978;SDS011;18502;43.574;1.276;2024-02-21T00:23:34;28.30;;;17.42;;
31978;SDS011;18502;43.574;1.276;2024-02-21T00:25:59;30.70;;;17.83;;
31978;SDS011;18502;43.574;1.276;2024-02-21T00:28:25;25.35;;;16.42;;
31978;SDS011;18502;43.574;1.276;2024-02-21T00:30:51;29.45;;;17.83;;
31978;SDS011;18502;43.574;1.276;2024-02-21T00:33:18;22.52;;;16.05;;
31978;SDS011;18502;43.574;1.276;2024-02-21T00:35:44;25.77;;;16.52;;
31978;SDS011;18502;43.574;1.276;2024-02-21T00:38:09;27.30;;;17.17;;
31978;SDS011;18502;43.574;1.276;2024-02-21T00:40:35;29.98;;;17.73;;
31978;SDS011;18502;43.574;1.276;2024-02-21T00:43:00;28.60;;;17.65;;
31978;SDS011;18502;43.574;1.276;2024-02-21T00:45:26;29.23;;;17.83;;
31978;SDS011;18502;43.574;1.276;2024-02-21T00:47:52;26.50;;;17.80;;
31978;SDS011;18502;43.574;1.276;2024-02-21T00:50:17;26.65;;;16.88;;
31978;SDS011;18502;43.574;1.276;2024-02-21T00:52:43;32.22;;;19.60;;
31978;SDS011;18502;43.574;1.276;2024-02-21T00:55:09;26.60;;;17.33;;
31978;SDS011;18502;43.574;1.276;2024-02-21T00:57:35;34.50;;;17.30;;
31978;SDS011;18502;43.574;1.276;2024-02-21T01:00:02;33.50;;;20.10;;
31978;SDS011;18502;43.574;1.276;2024-02-21T01:02:30;28.83;;;18.45;;
31978;SDS011;18502;43.574;1.276;2024-02-21T01:04:59;29.57;;;19.03;;
31978;SDS011;18502;43.574;1.276;2024-02-21T01:07:27;27.85;;;17.40;;
31978;SDS011;18502;43.574;1.276;2024-02-21T01:09:53;31.33;;;18.35;;
31978;SDS011;18502;43.574;1.276;2024-02-21T01:12:18;27.15;;;16.38;;
31978;SDS011;18502;43.574;1.276;2024-02-21T01:14:44;29.67;;;17.83;;
31978;SDS011;18502;43.574;1.276;2024-02-21T01:17:11;34.33;;;19.15;;
31978;SDS011;18502;43.574;1.276;2024-02-21T01:19:37;36.58;;;21.20;;
31978;SDS011;18502;43.574;1.276;2024-02-21T01:22:03;35.85;;;20.67;;
31978;SDS011;18502;43.574;1.276;2024-02-21T01:24:29;36.72;;;22.08;;
31978;SDS011;18502;43.574;1.276;2024-02-21T01:26:55;40.08;;;24.63;;
31978;SDS011;18502;43.574;1.276;2024-02-21T01:29:21;37.30;;;22.75;;
31978;SDS011;18502;43.574;1.276;2024-02-21T01:31:46;40.60;;;23.73;;
31978;SDS011;18502;43.574;1.276;2024-02-21T01:34:12;39.75;;;23.67;;
31978;SDS011;18502;43.574;1.276;2024-02-21T01:36:38;42.67;;;27.30;;
31978;SDS011;18502;43.574;1.276;2024-02-21T01:39:04;49.95;;;28.45;;
31978;SDS011;18502;43.574;1.276;2024-02-21T01:41:30;51.80;;;28.65;;
31978;SDS011;18502;43.574;1.276;2024-02-21T01:43:56;55.55;;;31.10;;
31978;SDS011;18502;43.574;1.276;2024-02-21T01:46:23;47.40;;;27.95;;
31978;SDS011;18502;43.574;1.276;2024-02-21T01:48:52;47.35;;;26.83;;
31978;SDS011;18502;43.574;1.276;2024-02-21T01:51:19;44.35;;;27.10;;
31978;SDS011;18502;43.574;1.276;2024-02-21T01:53:45;45.85;;;25.77;;
31978;SDS011;18502;43.574;1.276;2024-02-21T01:56:12;46.40;;;29.38;;
31978;SDS011;18502;43.574;1.276;2024-02-21T01:58:39;41.78;;;24.70;;
31978;SDS011;18502;43.574;1.276;2024-02-21T02:01:06;36.25;;;23.55;;
31978;SDS011;18502;43.574;1.276;2024-02-21T02:03:32;34.50;;;22.30;;
31978;SDS011;18502;43.574;1.276;2024-02-21T02:05:58;39.45;;;24.05;;
31978;SDS011;18502;43.574;1.276;2024-02-21T02:08:24;39.03;;;23.65;;
31978;SDS011;18502;43.574;1.276;2024-02-21T02:10:50;36.33;;;23.45;;
31978;SDS011;18502;43.574;1.276;2024-02-21T02:13:15;36.95;;;22.35;;
31978;SDS011;18502;43.574;1.276;2024-02-21T02:15:42;36.25;;;23.50;;
31978;SDS011;18502;43.574;1.276;2024-02-21T02:18:12;43.45;;;25.10;;
31978;SDS011;18502;43.574;1.276;2024-02-21T02:20:38;31.73;;;21.08;;
31978;SDS011;18502;43.574;1.276;2024-02-21T02:23:08;39.03;;;25.33;;
31978;SDS011;18502;43.574;1.276;2024-02-21T02:25:36;40.65;;;23.45;;
31978;SDS011;18502;43.574;1.276;2024-02-21T02:28:03;39.85;;;21.50;;
31978;SDS011;18502;43.574;1.276;2024-02-21T02:30:31;38.00;;;23.80;;
31978;SDS011;18502;43.574;1.276;2024-02-21T02:33:04;32.28;;;18.58;;
31978;SDS011;18502;43.574;1.276;2024-02-21T02:35:30;29.58;;;19.48;;
31978;SDS011;18502;43.574;1.276;2024-02-21T02:37:56;27.60;;;18.40;;
31978;SDS011;18502;43.574;1.276;2024-02-21T02:40:22;35.10;;;19.67;;
31978;SDS011;18502;43.574;1.276;2024-02-21T02:42:48;26.55;;;16.52;;
31978;SDS011;18502;43.574;1.276;2024-02-21T02:45:17;35.75;;;20.75;;
31978;SDS011;18502;43.574;1.276;2024-02-21T02:47:46;31.50;;;18.23;;
31978;SDS011;18502;43.574;1.276;2024-02-21T02:50:12;30.15;;;18.25;;
31978;SDS011;18502;43.574;1.276;2024-02-21T02:52:38;27.92;;;18.00;;
31978;SDS011;18502;43.574;1.276;2024-02-21T02:55:04;27.30;;;17.83;;
31978;SDS011;18502;43.574;1.276;2024-02-21T02:57:31;27.65;;;17.20;;
31978;SDS011;18502;43.574;1.276;2024-02-21T02:59:56;29.40;;;16.77;;
31978;SDS011;18502;43.574;1.276;2024-02-21T03:02:22;28.30;;;18.27;;
31978;SDS011;18502;43.574;1.276;2024-02-21T03:04:48;27.75;;;18.00;;
31978;SDS011;18502;43.574;1.276;2024-02-21T03:07:14;31.70;;;20.90;;
31978;SDS011;18502;43.574;1.276;2024-02-21T03:09:40;27.45;;;18.45;;
31978;SDS011;18502;43.574;1.276;2024-02-21T03:12:08;23.15;;;16.33;;
31978;SDS011;18502;43.574;1.276;2024-02-21T03:14:33;28.75;;;17.38;;
31978;SDS011;18502;43.574;1.276;2024-02-21T03:17:00;24.65;;;16.30;;
31978;SDS011;18502;43.574;1.276;2024-02-21T03:19:26;25.13;;;17.48;;
31978;SDS011;18502;43.574;1.276;2024-02-21T03:21:52;24.02;;;15.73;;
31978;SDS011;18502;43.574;1.276;2024-02-21T03:24:20;23.13;;;16.27;;
31978;SDS011;18502;43.574;1.276;2024-02-21T03:26:46;37.72;;;19.60;;
31978;SDS011;18502;43.574;1.276;2024-02-21T03:29:14;28.00;;;15.85;;
31978;SDS011;18502;43.574;1.276;2024-02-21T03:31:42;29.35;;;18.00;;
31978;SDS011;18502;43.574;1.276;2024-02-21T03:34:11;24.75;;;15.10;;
31978;SDS011;18502;43.574;1.276;2024-02-21T03:36:37;25.10;;;15.48;;
31978;SDS011;18502;43.574;1.276;2024-02-21T03:39:02;23.98;;;15.30;;
31978;SDS011;18502;43.574;1.276;2024-02-21T03:41:28;22.77;;;15.02;;
31978;SDS011;18502;43.574;1.276;2024-02-21T03:43:54;23.90;;;15.35;;
31978;SDS011;18502;43.574;1.276;2024-02-21T03:46:19;25.67;;;14.70;;
31978;SDS011;18502;43.574;1.276;2024-02-21T03:48:45;23.00;;;14.25;;
31978;SDS011;18502;43.574;1.276;2024-02-21T03:51:11;25.20;;;13.90;;
31978;SDS011;18502;43.574;1.276;2024-02-21T03:53:36;21.83;;;14.73;;
31978;SDS011;18502;43.574;1.276;2024-02-21T03:56:02;23.73;;;15.38;;
31978;SDS011;18502;43.574;1.276;2024-02-21T03:58:29;25.65;;;15.32;;
31978;SDS011;18502;43.574;1.276;2024-02-21T04:00:55;23.92;;;15.23;;
31978;SDS011;18502;43.574;1.276;2024-02-21T04:03:21;22.88;;;14.43;;
31978;SDS011;18502;43.574;1.276;2024-02-21T04:05:47;24.33;;;15.30;;
31978;SDS011;18502;43.574;1.276;2024-02-21T04:08:13;24.67;;;15.27;;
31978;SDS011;18502;43.574;1.276;2024-02-21T04:10:39;27.50;;;17.13;;
31978;SDS011;18502;43.574;1.276;2024-02-21T04:13:06;27.13;;;17.17;;
31978;SDS011;18502;43.574;1.276;2024-02-21T04:15:31;26.85;;;16.95;;
31978;SDS011;18502;43.574;1.276;2024-02-21T04:17:57;27.33;;;17.65;;
31978;SDS011;18502;43.574;1.276;2024-02-21T04:20:23;27.20;;;16.17;;
31978;SDS011;18502;43.574;1.276;2024-02-21T04:22:49;36.03;;;21.63;;
31978;SDS011;18502;43.574;1.276;2024-02-21T04:25:14;35.90;;;20.02;;
31978;SDS011;18502;43.574;1.276;2024-02-21T04:27:40;26.67;;;16.67;;
31978;SDS011;18502;43.574;1.276;2024-02-21T04:30:06;24.70;;;16.30;;
31978;SDS011;18502;43.574;1.276;2024-02-21T04:32:32;23.10;;;14.90;;
31978;SDS011;18502;43.574;1.276;2024-02-21T04:34:58;25.67;;;15.18;;
31978;SDS011;18502;43.574;1.276;2024-02-21T04:37:24;26.83;;;16.23;;
31978;SDS011;18502;43.574;1.276;2024-02-21T04:39:50;26.52;;;17.20;;
31978;SDS011;18502;43.574;1.276;2024-02-21T04:42:16;31.73;;;19.13;;
31978;SDS011;18502;43.574;1.276;2024-02-21T04:44:41;37.03;;;19.77;;
31978;SDS011;18502;43.574;1.276;2024-02-21T04:47:07;33.50;;;19.35;;
31978;SDS011;18502;43.574;1.276;2024-02-21T04:49:33;53.47;;;28.83;;
31978;SDS011;18502;43.574;1.276;2024-02-21T04:51:59;57.65;;;29.80;;
31978;SDS011;18502;43.574;1.276;2024-02-21T04:54:25;49.78;;;25.15;;
31978;SDS011;18502;43.574;1.276;2024-02-21T04:56:51;36.25;;;21.15;;
31978;SDS011;18502;43.574;1.276;2024-02-21T04:59:17;50.78;;;28.52;;
31978;SDS011;18502;43.574;1.276;2024-02-21T05:01:42;61.17;;;29.85;;
31978;SDS011;18502;43.574;1.276;2024-02-21T05:04:08;40.22;;;22.75;;
31978;SDS011;18502;43.574;1.276;2024-02-21T05:06:37;33.08;;;18.20;;
31978;SDS011;18502;43.574;1.276;2024-02-21T05:09:04;29.25;;;19.02;;
31978;SDS011;18502;43.574;1.276;2024-02-21T05:11:30;28.58;;;18.95;;
31978;SDS011;18502;43.574;1.276;2024-02-21T05:13:56;34.47;;;20.67;;
31978;SDS011;18502;43.574;1.276;2024-02-21T05:16:21;25.30;;;17.70;;
31978;SDS011;18502;43.574;1.276;2024-02-21T05:18:47;31.20;;;21.05;;
31978;SDS011;18502;43.574;1.276;2024-02-21T05:21:13;26.23;;;16.63;;
31978;SDS011;18502;43.574;1.276;2024-02-21T05:23:39;36.75;;;21.65;;
31978;SDS011;18502;43.574;1.276;2024-02-21T05:26:05;26.08;;;16.15;;
31978;SDS011;18502;43.574;1.276;2024-02-21T05:28:31;104.47;;;30.58;;
31978;SDS011;18502;43.574;1.276;2024-02-21T05:30:56;68.28;;;24.25;;
31978;SDS011;18502;43.574;1.276;2024-02-21T05:33:22;82.65;;;26.52;;
31978;SDS011;18502;43.574;1.276;2024-02-21T05:35:48;139.52;;;32.20;;
31978;SDS011;18502;43.574;1.276;2024-02-21T05:38:14;26.70;;;17.27;;
31978;SDS011;18502;43.574;1.276;2024-02-21T05:40:40;30.95;;;16.10;;
31978;SDS011;18502;43.574;1.276;2024-02-21T05:43:07;24.73;;;15.82;;
31978;SDS011;18502;43.574;1.276;2024-02-21T05:45:33;32.28;;;16.27;;
31978;SDS011;18502;43.574;1.276;2024-02-21T05:47:59;26.70;;;15.95;;
31978;SDS011;18502;43.574;1.276;2024-02-21T05:50:24;24.58;;;15.60;;
31978;SDS011;18502;43.574;1.276;2024-02-21T05:52:52;25.55;;;14.77;;
31978;SDS011;18502;43.574;1.276;2024-02-21T05:55:20;20.75;;;14.73;;
31978;SDS011;18502;43.574;1.276;2024-02-21T05:57:47;28.08;;;16.25;;
31978;SDS011;18502;43.574;1.276;2024-02-21T06:00:12;27.30;;;15.80;;
31978;SDS011;18502;43.574;1.276;2024-02-21T06:02:39;24.85;;;14.63;;
31978;SDS011;18502;43.574;1.276;2024-02-21T06:05:05;23.08;;;15.80;;
31978;SDS011;18502;43.574;1.276;2024-02-21T06:07:34;21.48;;;14.45;;
31978;SDS011;18502;43.574;1.276;2024-02-21T06:10:01;19.90;;;14.20;;
31978;SDS011;18502;43.574;1.276;2024-02-21T06:12:27;19.45;;;13.50;;
31978;SDS011;18502;43.574;1.276;2024-02-21T06:14:53;21.65;;;14.50;;
31978;SDS011;18502;43.574;1.276;2024-02-21T06:17:19;20.35;;;15.50;;
31978;SDS011;18502;43.574;1.276;2024-02-21T06:19:44;22.75;;;15.40;;
31978;SDS011;18502;43.574;1.276;2024-02-21T06:22:10;19.70;;;14.18;;
31978;SDS011;18502;43.574;1.276;2024-02-21T06:24:36;20.33;;;13.68;;
31978;SDS011;18502;43.574;1.276;2024-02-21T06:27:03;17.00;;;12.50;;
31978;SDS011;18502;43.574;1.276;2024-02-21T06:29:30;22.77;;;14.35;;
31978;SDS011;18502;43.574;1.276;2024-02-21T06:31:56;18.08;;;13.63;;
31978;SDS011;18502;43.574;1.276;2024-02-21T06:34:22;28.23;;;15.77;;
31978;SDS011;18502;43.574;1.276;2024-02-21T06:36:49;22.58;;;15.15;;
31978;SDS011;18502;43.574;1.276;2024-02-21T06:39:15;21.25;;;13.65;;
31978;SDS011;18502;43.574;1.276;2024-02-21T06:41:40;20.58;;;13.93;;
31978;SDS011;18502;43.574;1.276;2024-02-21T06:44:06;27.92;;;15.15;;
31978;SDS011;18502;43.574;1.276;2024-02-21T06:46:32;18.95;;;13.77;;
31978;SDS011;18502;43.574;1.276;2024-02-21T06:49:00;21.98;;;13.90;;
31978;SDS011;18502;43.574;1.276;2024-02-21T06:51:28;53.17;;;22.75;;
31978;SDS011;18502;43.574;1.276;2024-02-21T06:53:54;33.90;;;17.60;;
31978;SDS011;18502;43.574;1.276;2024-02-21T06:56:20;39.88;;;16.88;;
31978;SDS011;18502;43.574;1.276;2024-02-21T06:58:51;69.10;;;26.27;;
31978;SDS011;18502;43.574;1.276;2024-02-21T07:01:17;31.42;;;16.52;;
31978;SDS011;18502;43.574;1.276;2024-02-21T07:03:43;35.15;;;18.48;;
31978;SDS011;18502;43.574;1.276;2024-02-21T07:06:09;24.85;;;14.80;;
31978;SDS011;18502;43.574;1.276;2024-02-21T07:08:34;22.27;;;15.07;;
31978;SDS011;18502;43.574;1.276;2024-02-21T07:11:00;23.65;;;13.32;;
31978;SDS011;18502;43.574;1.276;2024-02-21T07:13:26;31.85;;;13.15;;
31978;SDS011;18502;43.574;1.276;2024-02-21T07:15:51;18.55;;;12.90;;
31978;SDS011;18502;43.574;1.276;2024-02-21T07:18:17;61.40;;;13.27;;
31978;SDS011;18502;43.574;1.276;2024-02-21T07:20:43;86.63;;;16.20;;
31978;SDS011;18502;43.574;1.276;2024-02-21T07:23:08;36.22;;;13.50;;
31978;SDS011;18502;43.574;1.276;2024-02-21T07:25:34;29.00;;;14.52;;
31978;SDS011;18502;43.574;1.276;2024-02-21T07:28:00;36.03;;;15.45;;
31978;SDS011;18502;43.574;1.276;2024-02-21T07:30:25;20.35;;;13.10;;
31978;SDS011;18502;43.574;1.276;2024-02-21T07:32:51;20.17;;;13.55;;
31978;SDS011;18502;43.574;1.276;2024-02-21T07:35:17;20.75;;;12.45;;
31978;SDS011;18502;43.574;1.276;2024-02-21T07:37:43;22.63;;;13.55;;
31978;SDS011;18502;43.574;1.276;2024-02-21T07:40:12;22.77;;;13.15;;
31978;SDS011;18502;43.574;1.276;2024-02-21T07:42:40;21.63;;;11.73;;
31978;SDS011;18502;43.574;1.276;2024-02-21T07:45:09;22.10;;;12.48;;
31978;SDS011;18502;43.574;1.276;2024-02-21T07:47:35;15.02;;;10.48;;
31978;SDS011;18502;43.574;1.276;2024-02-21T07:50:02;19.33;;;11.85;;
31978;SDS011;18502;43.574;1.276;2024-02-21T07:52:28;20.42;;;10.70;;
31978;SDS011;18502;43.574;1.276;2024-02-21T07:54:54;20.48;;;11.27;;
31978;SDS011;18502;43.574;1.276;2024-02-21T07:57:20;19.92;;;13.13;;
31978;SDS011;18502;43.574;1.276;2024-02-21T07:59:47;19.05;;;10.80;;
31978;SDS011;18502;43.574;1.276;2024-02-21T08:02:15;24.50;;;10.63;;
31978;SDS011;18502;43.574;1.276;2024-02-21T08:04:41;29.30;;;11.02;;
31978;SDS011;18502;43.574;1.276;2024-02-21T08:07:07;30.77;;;12.02;;
31978;SDS011;18502;43.574;1.276;2024-02-21T08:09:34;23.50;;;10.88;;
31978;SDS011;18502;43.574;1.276;2024-02-21T08:12:00;50.90;;;12.77;;
31978;SDS011;18502;43.574;1.276;2024-02-21T08:14:25;20.73;;;10.27;;
31978;SDS011;18502;43.574;1.276;2024-02-21T08:16:51;31.42;;;12.63;;
31978;SDS011;18502;43.574;1.276;2024-02-21T08:19:21;26.93;;;11.00;;
31978;SDS011;18502;43.574;1.276;2024-02-21T08:21:50;20.65;;;11.85;;
31978;SDS011;18502;43.574;1.276;2024-02-21T08:24:15;18.77;;;9.55;;
31978;SDS011;18502;43.574;1.276;2024-02-21T08:26:41;21.63;;;9.60;;
31978;SDS011;18502;43.574;1.276;2024-02-21T08:29:07;17.70;;;9.38;;
31978;SDS011;18502;43.574;1.276;2024-02-21T08:31:33;21.98;;;11.07;;
31978;SDS011;18502;43.574;1.276;2024-02-21T08:33:59;16.23;;;10.02;;
31978;SDS011;18502;43.574;1.276;2024-02-21T08:36:38;17.55;;;9.55;;
31978;SDS011;18502;43.574;1.276;2024-02-21T08:39:04;12.48;;;8.18;;
31978;SDS011;18502;43.574;1.276;2024-02-21T08:41:33;14.15;;;9.13;;
31978;SDS011;18502;43.574;1.276;2024-02-21T08:43:59;10.00;;;6.90;;
31978;SDS011;18502;43.574;1.276;2024-02-21T08:46:25;12.50;;;7.20;;
31978;SDS011;18502;43.574;1.276;2024-02-21T08:48:51;14.32;;;7.72;;
31978;SDS011;18502;43.574;1.276;2024-02-21T08:51:17;11.93;;;7.25;;
31978;SDS011;18502;43.574;1.276;2024-02-21T08:53:44;10.82;;;6.32;;
31978;SDS011;18502;43.574;1.276;2024-02-21T08:56:13;11.27;;;6.80;;
31978;SDS011;18502;43.574;1.276;2024-02-21T08:58:39;15.40;;;7.20;;
31978;SDS011;18502;43.574;1.276;2024-02-21T09:01:05;11.00;;;5.55;;
31978;SDS011;18502;43.574;1.276;2024-02-21T09:03:34;9.07;;;6.00;;
31978;SDS011;18502;43.574;1.276;2024-02-21T09:06:04;11.75;;;5.78;;
31978;SDS011;18502;43.574;1.276;2024-02-21T09:08:31;13.88;;;6.53;;
31978;SDS011;18502;43.574;1.276;2024-02-21T09:10:57;12.40;;;6.20;;
31978;SDS011;18502;43.574;1.276;2024-02-21T09:13:23;12.68;;;6.45;;
31978;SDS011;18502;43.574;1.276;2024-02-21T09:15:49;12.13;;;6.20;;
31978;SDS011;18502;43.574;1.276;2024-02-21T09:18:15;11.93;;;5.55;;
31978;SDS011;18502;43.574;1.276;2024-02-21T09:20:44;9.85;;;4.00;;
31978;SDS011;18502;43.574;1.276;2024-02-21T09:23:10;10.10;;;3.88;;
31978;SDS011;18502;43.574;1.276;2024-02-21T09:25:36;9.85;;;4.80;;
31978;SDS011;18502;43.574;1.276;2024-02-21T09:28:02;10.15;;;4.00;;
31978;SDS011;18502;43.574;1.276;2024-02-21T09:30:28;8.50;;;4.65;;
31978;SDS011;18502;43.574;1.276;2024-02-21T09:32:55;11.63;;;4.75;;
31978;SDS011;18502;43.574;1.276;2024-02-21T09:35:23;8.55;;;3.97;;
31978;SDS011;18502;43.574;1.276;2024-02-21T09:37:51;6.88;;;3.67;;
31978;SDS011;18502;43.574;1.276;2024-02-21T09:40:17;9.27;;;4.20;;
31978;SDS011;18502;43.574;1.276;2024-02-21T09:42:43;10.60;;;3.85;;
31978;SDS011;18502;43.574;1.276;2024-02-21T09:50:34;11.57;;;3.45;;
31978;SDS011;18502;43.574;1.276;2024-02-21T09:53:01;7.75;;;3.30;;
31978;SDS011;18502;43.574;1.276;2024-02-21T09:55:29;8.50;;;3.97;;
31978;SDS011;18502;43.574;1.276;2024-02-21T09:57:59;9.02;;;3.58;;
31978;SDS011;18502;43.574;1.276;2024-02-21T10:00:27;11.07;;;3.83;;
31978;SDS011;18502;43.574;1.276;2024-02-21T10:02:53;9.95;;;4.22;;
31978;SDS011;18502;43.574;1.276;2024-02-21T10:05:19;7.55;;;2.97;;
31978;SDS011;18502;43.574;1.276;2024-02-21T10:07:44;5.95;;;3.00;;
31978;SDS011;18502;43.574;1.276;2024-02-21T10:10:10;7.63;;;3.42;;
31978;SDS011;18502;43.574;1.276;2024-02-21T10:12:36;8.90;;;2.83;;
31978;SDS011;18502;43.574;1.276;2024-02-21T10:15:02;5.38;;;2.70;;
31978;SDS011;18502;43.574;1.276;2024-02-21T10:17:29;5.25;;;3.13;;
31978;SDS011;18502;43.574;1.276;2024-02-21T10:19:55;6.85;;;2.88;;
31978;SDS011;18502;43.574;1.276;2024-02-21T10:22:20;7.05;;;2.50;;
31978;SDS011;18502;43.574;1.276;2024-02-21T10:24:46;4.20;;;1.98;;
31978;SDS011;18502;43.574;1.276;2024-02-21T10:27:12;7.03;;;2.10;;
31978;SDS011;18502;43.574;1.276;2024-02-21T10:29:38;7.55;;;2.67;;
31978;SDS011;18502;43.574;1.276;2024-02-21T10:34:34;7.13;;;2.17;;
31978;SDS011;18502;43.574;1.276;2024-02-21T10:37:04;8.55;;;2.15;;
31978;SDS011;18502;43.574;1.276;2024-02-21T10:42:01;8.18;;;2.63;;
31978;SDS011;18502;43.574;1.276;2024-02-21T10:44:31;8.38;;;2.70;;
31978;SDS011;18502;43.574;1.276;2024-02-21T10:46:58;8.05;;;2.58;;
31978;SDS011;18502;43.574;1.276;2024-02-21T10:49:25;13.48;;;5.28;;
31978;SDS011;18502;43.574;1.276;2024-02-21T10:52:17;12.98;;;5.18;;
31978;SDS011;18502;43.574;1.276;2024-02-21T10:55:13;15.98;;;5.75;;
31978;SDS011;18502;43.574;1.276;2024-02-21T10:57:45;10.52;;;3.10;;
31978;SDS011;18502;43.574;1.276;2024-02-21T11:00:12;5.72;;;2.22;;
31978;SDS011;18502;43.574;1.276;2024-02-21T11:05:08;10.52;;;3.53;;
31978;SDS011;18502;43.574;1.276;2024-02-21T11:07:35;13.65;;;3.72;;
31978;SDS011;18502;43.574;1.276;2024-02-21T11:10:03;8.55;;;3.08;;
31978;SDS011;18502;43.574;1.276;2024-02-21T11:12:32;16.80;;;7.82;;
31978;SDS011;18502;43.574;1.276;2024-02-21T11:15:05;17.23;;;7.88;;
31978;SDS011;18502;43.574;1.276;2024-02-21T11:17:31;24.10;;;13.23;;
31978;SDS011;18502;43.574;1.276;2024-02-21T11:19:56;17.15;;;9.48;;
31978;SDS011;18502;43.574;1.276;2024-02-21T11:22:24;27.15;;;13.10;;
31978;SDS011;18502;43.574;1.276;2024-02-21T11:27:21;11.15;;;4.68;;
31978;SDS011;18502;43.574;1.276;2024-02-21T11:29:57;7.45;;;3.40;;
31978;SDS011;18502;43.574;1.276;2024-02-21T11:32:23;9.20;;;2.45;;
31978;SDS011;18502;43.574;1.276;2024-02-21T11:37:19;7.80;;;2.03;;
31978;SDS011;18502;43.574;1.276;2024-02-21T11:39:45;8.68;;;2.10;;
31978;SDS011;18502;43.574;1.276;2024-02-21T11:42:10;6.25;;;1.88;;
31978;SDS011;18502;43.574;1.276;2024-02-21T11:44:37;4.50;;;2.03;;
31978;SDS011;18502;43.574;1.276;2024-02-21T11:47:04;6.68;;;2.22;;
31978;SDS011;18502;43.574;1.276;2024-02-21T11:49:35;8.05;;;2.40;;
31978;SDS011;18502;43.574;1.276;2024-02-21T11:52:03;6.10;;;1.95;;
31978;SDS011;18502;43.574;1.276;2024-02-21T11:54:29;5.43;;;2.15;;
31978;SDS011;18502;43.574;1.276;2024-02-21T11:56:55;4.70;;;2.35;;
31978;SDS011;18502;43.574;1.276;2024-02-21T11:59:21;6.05;;;2.70;;
31978;SDS011;18502;43.574;1.276;2024-02-21T12:01:47;8.65;;;2.75;;
31978;SDS011;18502;43.574;1.276;2024-02-21T12:04:13;4.25;;;1.92;;
31978;SDS011;18502;43.574;1.276;2024-02-21T12:06:42;3.67;;;1.98;;
31978;SDS011;18502;43.574;1.276;2024-02-21T12:09:09;4.78;;;1.80;;
31978;SDS011;18502;43.574;1.276;2024-02-21T12:11:35;4.75;;;2.33;;
31978;SDS011;18502;43.574;1.276;2024-02-21T12:14:01;5.43;;;2.25;;
31978;SDS011;18502;43.574;1.276;2024-02-21T12:16:29;4.68;;;2.38;;
31978;SDS011;18502;43.574;1.276;2024-02-21T12:18:55;6.15;;;2.00;;
31978;SDS011;18502;43.574;1.276;2024-02-21T12:21:25;5.32;;;1.77;;
31978;SDS011;18502;43.574;1.276;2024-02-21T12:24:00;5.22;;;2.55;;
31978;SDS011;18502;43.574;1.276;2024-02-21T12:26:40;5.38;;;2.13;;
31978;SDS011;18502;43.574;1.276;2024-02-21T12:29:06;3.63;;;1.55;;
31978;SDS011;18502;43.574;1.276;2024-02-21T12:31:34;4.50;;;2.13;;
31978;SDS011;18502;43.574;1.276;2024-02-21T12:34:01;6.90;;;1.98;;
31978;SDS011;18502;43.574;1.276;2024-02-21T12:36:27;4.45;;;1.70;;
31978;SDS011;18502;43.574;1.276;2024-02-21T12:38:52;2.85;;;1.50;;
31978;SDS011;18502;43.574;1.276;2024-02-21T12:41:18;4.50;;;1.15;;
31978;SDS011;18502;43.574;1.276;2024-02-21T12:43:44;4.72;;;1.88;;
31978;SDS011;18502;43.574;1.276;2024-02-21T12:46:09;5.97;;;2.13;;
31978;SDS011;18502;43.574;1.276;2024-02-21T12:48:35;2.13;;;1.05;;
31978;SDS011;18502;43.574;1.276;2024-02-21T12:51:01;4.03;;;1.60;;
31978;SDS011;18502;43.574;1.276;2024-02-21T12:53:26;6.13;;;1.90;;
31978;SDS011;18502;43.574;1.276;2024-02-21T12:55:52;5.93;;;1.75;;
31978;SDS011;18502;43.574;1.276;2024-02-21T12:58:18;4.95;;;1.67;;
31978;SDS011;18502;43.574;1.276;2024-02-21T13:00:43;6.72;;;1.88;;
31978;SDS011;18502;43.574;1.276;2024-02-21T13:03:09;4.40;;;1.30;;
31978;SDS011;18502;43.574;1.276;2024-02-21T13:05:38;2.63;;;1.08;;
31978;SDS011;18502;43.574;1.276;2024-02-21T13:08:06;3.97;;;1.45;;
31978;SDS011;18502;43.574;1.276;2024-02-21T13:10:34;3.20;;;1.27;;
31978;SDS011;18502;43.574;1.276;2024-02-21T13:13:00;7.07;;;1.75;;
31978;SDS011;18502;43.574;1.276;2024-02-21T13:15:26;5.38;;;1.17;;
31978;SDS011;18502;43.574;1.276;2024-02-21T13:17:53;4.65;;;1.50;;
31978;SDS011;18502;43.574;1.276;2024-02-21T13:20:19;3.80;;;2.10;;
31978;SDS011;18502;43.574;1.276;2024-02-21T13:22:46;4.95;;;1.50;;
31978;SDS011;18502;43.574;1.276;2024-02-21T13:25:11;7.00;;;2.05;;
31978;SDS011;18502;43.574;1.276;2024-02-21T13:27:40;5.88;;;1.40;;
31978;SDS011;18502;43.574;1.276;2024-02-21T13:30:06;3.97;;;1.90;;
31978;SDS011;18502;43.574;1.276;2024-02-21T13:32:34;2.80;;;1.25;;
31978;SDS011;18502;43.574;1.276;2024-02-21T13:34:59;4.80;;;1.70;;
31978;SDS011;18502;43.574;1.276;2024-02-21T13:37:26;3.50;;;1.15;;
31978;SDS011;18502;43.574;1.276;2024-02-21T13:39:52;2.67;;;1.38;;
31978;SDS011;18502;43.574;1.276;2024-02-21T13:42:18;2.90;;;1.60;;
31978;SDS011;18502;43.574;1.276;2024-02-21T13:44:44;6.45;;;1.90;;
31978;SDS011;18502;43.574;1.276;2024-02-21T13:47:10;4.95;;;1.40;;
31978;SDS011;18502;43.574;1.276;2024-02-21T13:49:38;6.30;;;2.10;;
31978;SDS011;18502;43.574;1.276;2024-02-21T13:52:04;2.78;;;1.33;;
31978;SDS011;18502;43.574;1.276;2024-02-21T13:54:30;3.47;;;1.50;;
31978;SDS011;18502;43.574;1.276;2024-02-21T13:56:55;1.73;;;0.93;;
31978;SDS011;18502;43.574;1.276;2024-02-21T13:59:21;2.80;;;1.27;;
31978;SDS011;18502;43.574;1.276;2024-02-21T14:01:47;2.78;;;1.23;;
31978;SDS011;18502;43.574;1.276;2024-02-21T14:04:12;2.13;;;1.27;;
31978;SDS011;18502;43.574;1.276;2024-02-21T14:06:38;2.30;;;1.30;;
31978;SDS011;18502;43.574;1.276;2024-02-21T14:09:08;2.88;;;1.30;;
31978;SDS011;18502;43.574;1.276;2024-02-21T14:11:34;2.45;;;1.38;;
31978;SDS011;18502;43.574;1.276;2024-02-21T14:14:00;3.67;;;1.70;;
31978;SDS011;18502;43.574;1.276;2024-02-21T14:16:26;3.42;;;1.73;;
31978;SDS011;18502;43.574;1.276;2024-02-21T14:18:52;3.03;;;1.83;;
31978;SDS011;18502;43.574;1.276;2024-02-21T14:21:19;5.25;;;1.58;;
31978;SDS011;18502;43.574;1.276;2024-02-21T14:23:44;5.97;;;1.40;;
31978;SDS011;18502;43.574;1.276;2024-02-21T14:26:10;5.07;;;1.90;;
31978;SDS011;18502;43.574;1.276;2024-02-21T14:28:37;3.50;;;1.98;;
31978;SDS011;18502;43.574;1.276;2024-02-21T14:31:02;6.80;;;2.33;;
31978;SDS011;18502;43.574;1.276;2024-02-21T14:33:31;2.45;;;1.80;;
31978;SDS011;18502;43.574;1.276;2024-02-21T14:35:56;2.08;;;1.60;;
31978;SDS011;18502;43.574;1.276;2024-02-21T14:38:22;3.00;;;1.60;;
31978;SDS011;18502;43.574;1.276;2024-02-21T14:40:48;5.15;;;2.30;;
31978;SDS011;18502;43.574;1.276;2024-02-21T14:43:13;4.53;;;1.60;;
31978;SDS011;18502;43.574;1.276;2024-02-21T14:45:39;5.53;;;2.00;;